sensor_id;sensor_type;location;lat;lon;timestamp;P1;durP1;ratioP1;P2;durP2;ratioP2
75548;SDS011;64133;56.002;37.208;2024-03-02T00:00:27;20.23;;;9.55;;
75548;SDS011;64133;56.002;37.208;2024-03-02T00:05:32;23.62;;;10.25;;
75548;SDS011;64133;56.002;37.208;2024-03-02T00:10:38;27.25;;;10.95;;
75548;SDS011;64133;56.002;37.208;2024-03-02T00:15:45;25.32;;;11.00;;
75548;SDS011;64133;56.002;37.208;2024-03-02T00:26:02;14.98;;;9.38;;
75548;SDS011;64133;56.002;37.208;2024-03-02T00:31:08;19.10;;;11.08;;
75548;SDS011;64133;56.002;37.208;2024-03-02T00:36:13;14.90;;;8.53;;
75548;SDS011;64133;56.002;37.208;2024-03-02T00:41:19;21.33;;;8.88;;
75548;SDS011;64133;56.002;37.208;2024-03-02T00:46:23;25.60;;;9.45;;
75548;SDS011;64133;56.002;37.208;2024-03-02T00:51:29;17.27;;;9.03;;
75548;SDS011;64133;56.002;37.208;2024-03-02T00:56:33;19.87;;;10.85;;
75548;SDS011;64133;56.002;37.208;2024-03-02T01:01:38;16.80;;;9.00;;
75548;SDS011;64133;56.002;37.208;2024-03-02T01:06:43;21.20;;;9.50;;
75548;SDS011;64133;56.002;37.208;2024-03-02T01:11:48;22.75;;;9.75;;
75548;SDS011;64133;56.002;37.208;2024-03-02T01:16:53;20.52;;;8.30;;
75548;SDS011;64133;56.002;37.208;2024-03-02T01:21:58;17.75;;;7.65;;
75548;SDS011;64133;56.002;37.208;2024-03-02T01:27:03;18.05;;;10.08;;
75548;SDS011;64133;56.002;37.208;2024-03-02T01:32:08;16.02;;;8.10;;
75548;SDS011;64133;56.002;37.208;2024-03-02T01:37:13;21.90;;;9.33;;
75548;SDS011;64133;56.002;37.208;2024-03-02T01:42:18;17.62;;;9.30;;
75548;SDS011;64133;56.002;37.208;2024-03-02T01:47:23;18.12;;;10.05;;
75548;SDS011;64133;56.002;37.208;2024-03-02T01:52:28;12.03;;;8.18;;
75548;SDS011;64133;56.002;37.208;2024-03-02T01:57:33;19.62;;;9.40;;
75548;SDS011;64133;56.002;37.208;2024-03-02T02:02:38;24.77;;;9.90;;
75548;SDS011;64133;56.002;37.208;2024-03-02T02:07:43;18.40;;;9.70;;
75548;SDS011;64133;56.002;37.208;2024-03-02T02:12:48;17.50;;;9.73;;
75548;SDS011;64133;56.002;37.208;2024-03-02T02:17:53;33.00;;;10.45;;
75548;SDS011;64133;56.002;37.208;2024-03-02T02:22:58;15.05;;;9.50;;
75548;SDS011;64133;56.002;37.208;2024-03-02T02:28:04;21.07;;;10.45;;
75548;SDS011;64133;56.002;37.208;2024-03-02T02:33:09;19.77;;;10.53;;
75548;SDS011;64133;56.002;37.208;2024-03-02T02:38:14;27.90;;;10.75;;
75548;SDS011;64133;56.002;37.208;2024-03-02T02:43:19;22.40;;;11.30;;
75548;SDS011;64133;56.002;37.208;2024-03-02T02:48:24;17.00;;;10.43;;
75548;SDS011;64133;56.002;37.208;2024-03-02T02:53:29;26.05;;;9.63;;
75548;SDS011;64133;56.002;37.208;2024-03-02T02:58:34;23.92;;;11.30;;
75548;SDS011;64133;56.002;37.208;2024-03-02T03:03:39;19.75;;;11.18;;
75548;SDS011;64133;56.002;37.208;2024-03-02T03:08:44;23.30;;;10.93;;
75548;SDS011;64133;56.002;37.208;2024-03-02T03:13:49;20.12;;;11.45;;
75548;SDS011;64133;56.002;37.208;2024-03-02T03:18:54;18.25;;;9.73;;
75548;SDS011;64133;56.002;37.208;2024-03-02T03:23:59;16.40;;;9.70;;
75548;SDS011;64133;56.002;37.208;2024-03-02T03:29:04;20.75;;;10.43;;
75548;SDS011;64133;56.002;37.208;2024-03-02T03:34:08;18.55;;;9.35;;
75548;SDS011;64133;56.002;37.208;2024-03-02T03:39:13;23.10;;;10.32;;
75548;SDS011;64133;56.002;37.208;2024-03-02T03:44:18;19.92;;;9.18;;
75548;SDS011;64133;56.002;37.208;2024-03-02T03:49:23;21.85;;;9.38;;
75548;SDS011;64133;56.002;37.208;2024-03-02T03:54:28;19.30;;;10.08;;
75548;SDS011;64133;56.002;37.208;2024-03-02T03:59:33;19.23;;;9.68;;
75548;SDS011;64133;56.002;37.208;2024-03-02T04:04:39;19.52;;;10.20;;
75548;SDS011;64133;56.002;37.208;2024-03-02T04:09:43;22.32;;;11.03;;
75548;SDS011;64133;56.002;37.208;2024-03-02T04:14:49;18.32;;;10.28;;
75548;SDS011;64133;56.002;37.208;2024-03-02T04:19:54;20.65;;;12.20;;
75548;SDS011;64133;56.002;37.208;2024-03-02T04:24:59;24.00;;;10.85;;
75548;SDS011;64133;56.002;37.208;2024-03-02T04:30:05;20.37;;;10.58;;
75548;SDS011;64133;56.002;37.208;2024-03-02T04:35:11;18.35;;;10.40;;
75548;SDS011;64133;56.002;37.208;2024-03-02T04:40:16;22.30;;;10.98;;
75548;SDS011;64133;56.002;37.208;2024-03-02T04:45:21;23.07;;;9.95;;
75548;SDS011;64133;56.002;37.208;2024-03-02T04:50:26;18.92;;;9.05;;
75548;SDS011;64133;56.002;37.208;2024-03-02T04:55:31;19.60;;;9.25;;
75548;SDS011;64133;56.002;37.208;2024-03-02T05:00:53;13.60;;;8.38;;
75548;SDS011;64133;56.002;37.208;2024-03-02T05:05:58;12.73;;;7.92;;
75548;SDS011;64133;56.002;37.208;2024-03-02T05:11:03;25.80;;;11.50;;
75548;SDS011;64133;56.002;37.208;2024-03-02T05:16:27;18.98;;;9.48;;
75548;SDS011;64133;56.002;37.208;2024-03-02T05:21:32;22.30;;;11.53;;
75548;SDS011;64133;56.002;37.208;2024-03-02T05:26:37;25.77;;;11.83;;
75548;SDS011;64133;56.002;37.208;2024-03-02T05:31:42;32.98;;;11.85;;
75548;SDS011;64133;56.002;37.208;2024-03-02T05:36:47;23.65;;;12.13;;
75548;SDS011;64133;56.002;37.208;2024-03-02T05:41:52;22.55;;;12.10;;
75548;SDS011;64133;56.002;37.208;2024-03-02T05:46:57;21.42;;;11.03;;
75548;SDS011;64133;56.002;37.208;2024-03-02T05:52:04;30.17;;;12.55;;
75548;SDS011;64133;56.002;37.208;2024-03-02T05:57:11;26.10;;;13.70;;
75548;SDS011;64133;56.002;37.208;2024-03-02T06:02:20;25.65;;;11.50;;
75548;SDS011;64133;56.002;37.208;2024-03-02T06:07:25;21.73;;;11.50;;
75548;SDS011;64133;56.002;37.208;2024-03-02T06:12:31;28.83;;;11.95;;
75548;SDS011;64133;56.002;37.208;2024-03-02T06:17:36;23.32;;;12.20;;
75548;SDS011;64133;56.002;37.208;2024-03-02T06:22:42;22.85;;;10.80;;
75548;SDS011;64133;56.002;37.208;2024-03-02T06:27:47;27.07;;;11.38;;
75548;SDS011;64133;56.002;37.208;2024-03-02T06:32:51;20.72;;;9.73;;
75548;SDS011;64133;56.002;37.208;2024-03-02T06:37:57;21.97;;;12.10;;
75548;SDS011;64133;56.002;37.208;2024-03-02T06:43:02;19.50;;;9.20;;
75548;SDS011;64133;56.002;37.208;2024-03-02T06:48:07;23.32;;;11.88;;
75548;SDS011;64133;56.002;37.208;2024-03-02T06:53:12;18.55;;;12.07;;
75548;SDS011;64133;56.002;37.208;2024-03-02T06:58:18;23.12;;;9.60;;
75548;SDS011;64133;56.002;37.208;2024-03-02T07:03:22;18.20;;;9.78;;
75548;SDS011;64133;56.002;37.208;2024-03-02T07:08:27;20.88;;;9.85;;
75548;SDS011;64133;56.002;37.208;2024-03-02T07:13:33;16.17;;;8.88;;
75548;SDS011;64133;56.002;37.208;2024-03-02T07:18:38;21.65;;;10.32;;
75548;SDS011;64133;56.002;37.208;2024-03-02T07:23:43;22.73;;;10.58;;
75548;SDS011;64133;56.002;37.208;2024-03-02T07:28:48;22.58;;;11.50;;
75548;SDS011;64133;56.002;37.208;2024-03-02T07:33:53;27.05;;;10.72;;
75548;SDS011;64133;56.002;37.208;2024-03-02T07:38:58;22.02;;;11.03;;
75548;SDS011;64133;56.002;37.208;2024-03-02T07:44:03;20.12;;;9.95;;
75548;SDS011;64133;56.002;37.208;2024-03-02T07:49:09;21.00;;;11.60;;
75548;SDS011;64133;56.002;37.208;2024-03-02T07:54:14;19.30;;;10.85;;
75548;SDS011;64133;56.002;37.208;2024-03-02T07:59:19;20.15;;;9.70;;
75548;SDS011;64133;56.002;37.208;2024-03-02T08:04:25;22.30;;;11.20;;
75548;SDS011;64133;56.002;37.208;2024-03-02T08:09:30;28.65;;;11.20;;
75548;SDS011;64133;56.002;37.208;2024-03-02T08:14:35;23.00;;;9.93;;
75548;SDS011;64133;56.002;37.208;2024-03-02T08:19:40;20.75;;;10.25;;
75548;SDS011;64133;56.002;37.208;2024-03-02T08:24:45;23.47;;;13.35;;
75548;SDS011;64133;56.002;37.208;2024-03-02T08:29:54;25.40;;;11.65;;
75548;SDS011;64133;56.002;37.208;2024-03-02T08:34:59;27.32;;;12.85;;
75548;SDS011;64133;56.002;37.208;2024-03-02T08:40:04;27.05;;;13.00;;
75548;SDS011;64133;56.002;37.208;2024-03-02T08:45:11;31.15;;;13.83;;
75548;SDS011;64133;56.002;37.208;2024-03-02T08:50:16;32.85;;;13.43;;
75548;SDS011;64133;56.002;37.208;2024-03-02T08:55:21;31.52;;;14.33;;
75548;SDS011;64133;56.002;37.208;2024-03-02T09:00:26;34.10;;;13.30;;
75548;SDS011;64133;56.002;37.208;2024-03-02T09:05:31;25.25;;;12.13;;
75548;SDS011;64133;56.002;37.208;2024-03-02T09:10:36;23.65;;;11.65;;
75548;SDS011;64133;56.002;37.208;2024-03-02T09:15:41;18.25;;;10.30;;
75548;SDS011;64133;56.002;37.208;2024-03-02T09:20:46;23.40;;;10.95;;
75548;SDS011;64133;56.002;37.208;2024-03-02T09:25:51;20.20;;;9.85;;
75548;SDS011;64133;56.002;37.208;2024-03-02T09:30:56;25.60;;;11.15;;
75548;SDS011;64133;56.002;37.208;2024-03-02T09:36:01;19.50;;;8.80;;
75548;SDS011;64133;56.002;37.208;2024-03-02T09:41:07;21.07;;;11.78;;
75548;SDS011;64133;56.002;37.208;2024-03-02T09:46:13;26.75;;;11.70;;
75548;SDS011;64133;56.002;37.208;2024-03-02T09:51:18;27.58;;;12.40;;
75548;SDS011;64133;56.002;37.208;2024-03-02T09:56:23;16.95;;;9.53;;
75548;SDS011;64133;56.002;37.208;2024-03-02T10:01:28;32.42;;;11.45;;
75548;SDS011;64133;56.002;37.208;2024-03-02T10:06:34;25.50;;;11.25;;
75548;SDS011;64133;56.002;37.208;2024-03-02T10:11:39;22.50;;;11.30;;
75548;SDS011;64133;56.002;37.208;2024-03-02T10:16:44;22.60;;;10.23;;
75548;SDS011;64133;56.002;37.208;2024-03-02T10:21:52;27.15;;;10.53;;
75548;SDS011;64133;56.002;37.208;2024-03-02T10:26:57;26.87;;;10.98;;
75548;SDS011;64133;56.002;37.208;2024-03-02T10:32:04;21.52;;;10.00;;
75548;SDS011;64133;56.002;37.208;2024-03-02T10:37:10;26.00;;;12.58;;
75548;SDS011;64133;56.002;37.208;2024-03-02T10:42:15;19.57;;;9.75;;
75548;SDS011;64133;56.002;37.208;2024-03-02T10:47:29;24.12;;;12.40;;
75548;SDS011;64133;56.002;37.208;2024-03-02T10:52:34;29.52;;;13.72;;
75548;SDS011;64133;56.002;37.208;2024-03-02T10:57:42;25.72;;;13.45;;
75548;SDS011;64133;56.002;37.208;2024-03-02T11:02:49;21.45;;;10.72;;
75548;SDS011;64133;56.002;37.208;2024-03-02T11:07:53;28.00;;;12.07;;
75548;SDS011;64133;56.002;37.208;2024-03-02T11:12:59;22.67;;;9.85;;
75548;SDS011;64133;56.002;37.208;2024-03-02T11:18:05;24.70;;;12.15;;
75548;SDS011;64133;56.002;37.208;2024-03-02T11:23:10;27.82;;;11.70;;
75548;SDS011;64133;56.002;37.208;2024-03-02T11:28:15;21.12;;;11.08;;
75548;SDS011;64133;56.002;37.208;2024-03-02T11:33:24;30.35;;;12.37;;
75548;SDS011;64133;56.002;37.208;2024-03-02T11:38:32;23.02;;;10.08;;
75548;SDS011;64133;56.002;37.208;2024-03-02T11:43:43;25.25;;;12.15;;
75548;SDS011;64133;56.002;37.208;2024-03-02T11:49:03;27.60;;;11.35;;
75548;SDS011;64133;56.002;37.208;2024-03-02T11:54:12;25.48;;;11.08;;
75548;SDS011;64133;56.002;37.208;2024-03-02T11:59:17;23.57;;;12.88;;
75548;SDS011;64133;56.002;37.208;2024-03-02T12:04:23;16.30;;;9.18;;
75548;SDS011;64133;56.002;37.208;2024-03-02T12:09:32;24.77;;;12.18;;
75548;SDS011;64133;56.002;37.208;2024-03-02T12:14:37;17.62;;;10.20;;
75548;SDS011;64133;56.002;37.208;2024-03-02T12:19:42;23.55;;;9.60;;
75548;SDS011;64133;56.002;37.208;2024-03-02T12:24:47;18.10;;;10.13;;
75548;SDS011;64133;56.002;37.208;2024-03-02T12:29:52;21.42;;;11.57;;
75548;SDS011;64133;56.002;37.208;2024-03-02T12:34:57;22.30;;;10.40;;
75548;SDS011;64133;56.002;37.208;2024-03-02T12:40:04;22.70;;;9.98;;
75548;SDS011;64133;56.002;37.208;2024-03-02T12:45:10;20.27;;;11.00;;
75548;SDS011;64133;56.002;37.208;2024-03-02T12:50:15;24.52;;;9.88;;
75548;SDS011;64133;56.002;37.208;2024-03-02T12:55:21;17.23;;;9.40;;
75548;SDS011;64133;56.002;37.208;2024-03-02T13:00:26;20.77;;;10.10;;
75548;SDS011;64133;56.002;37.208;2024-03-02T13:05:32;18.87;;;10.78;;
75548;SDS011;64133;56.002;37.208;2024-03-02T13:10:41;18.05;;;8.65;;
75548;SDS011;64133;56.002;37.208;2024-03-02T13:15:48;15.40;;;8.88;;
75548;SDS011;64133;56.002;37.208;2024-03-02T13:20:53;16.10;;;9.58;;
75548;SDS011;64133;56.002;37.208;2024-03-02T13:25:59;18.12;;;9.88;;
75548;SDS011;64133;56.002;37.208;2024-03-02T13:31:05;23.12;;;9.13;;
75548;SDS011;64133;56.002;37.208;2024-03-02T13:36:10;15.65;;;8.90;;
75548;SDS011;64133;56.002;37.208;2024-03-02T13:41:15;15.85;;;9.33;;
75548;SDS011;64133;56.002;37.208;2024-03-02T13:46:20;19.23;;;9.48;;
75548;SDS011;64133;56.002;37.208;2024-03-02T13:51:25;16.57;;;10.28;;
75548;SDS011;64133;56.002;37.208;2024-03-02T13:56:33;27.77;;;10.80;;
75548;SDS011;64133;56.002;37.208;2024-03-02T14:01:38;19.70;;;12.33;;
75548;SDS011;64133;56.002;37.208;2024-03-02T14:06:44;23.50;;;11.28;;
75548;SDS011;64133;56.002;37.208;2024-03-02T14:11:51;16.45;;;9.70;;
75548;SDS011;64133;56.002;37.208;2024-03-02T14:16:58;17.65;;;8.03;;
75548;SDS011;64133;56.002;37.208;2024-03-02T14:22:04;17.50;;;9.70;;
75548;SDS011;64133;56.002;37.208;2024-03-02T14:27:09;14.70;;;10.43;;
75548;SDS011;64133;56.002;37.208;2024-03-02T14:32:14;15.63;;;8.75;;
75548;SDS011;64133;56.002;37.208;2024-03-02T14:37:22;18.45;;;11.22;;
75548;SDS011;64133;56.002;37.208;2024-03-02T14:42:27;21.70;;;10.55;;
75548;SDS011;64133;56.002;37.208;2024-03-02T14:47:32;16.82;;;9.38;;
75548;SDS011;64133;56.002;37.208;2024-03-02T14:52:40;16.45;;;9.83;;
75548;SDS011;64133;56.002;37.208;2024-03-02T14:57:45;18.98;;;9.05;;
75548;SDS011;64133;56.002;37.208;2024-03-02T15:02:50;14.50;;;8.43;;
75548;SDS011;64133;56.002;37.208;2024-03-02T15:07:56;19.87;;;10.78;;
75548;SDS011;64133;56.002;37.208;2024-03-02T15:13:01;16.97;;;8.88;;
75548;SDS011;64133;56.002;37.208;2024-03-02T15:18:06;15.88;;;9.05;;
75548;SDS011;64133;56.002;37.208;2024-03-02T15:23:12;16.45;;;8.43;;
75548;SDS011;64133;56.002;37.208;2024-03-02T15:28:19;12.37;;;6.92;;
75548;SDS011;64133;56.002;37.208;2024-03-02T15:33:24;21.37;;;9.90;;
75548;SDS011;64133;56.002;37.208;2024-03-02T15:38:29;18.62;;;9.40;;
75548;SDS011;64133;56.002;37.208;2024-03-02T15:43:34;20.00;;;9.73;;
75548;SDS011;64133;56.002;37.208;2024-03-02T15:48:40;16.77;;;8.93;;
75548;SDS011;64133;56.002;37.208;2024-03-02T15:53:45;16.02;;;8.70;;
75548;SDS011;64133;56.002;37.208;2024-03-02T15:58:50;19.92;;;9.73;;
75548;SDS011;64133;56.002;37.208;2024-03-02T16:03:55;21.12;;;10.93;;
75548;SDS011;64133;56.002;37.208;2024-03-02T16:09:00;21.68;;;9.55;;
75548;SDS011;64133;56.002;37.208;2024-03-02T16:14:06;15.32;;;8.18;;
75548;SDS011;64133;56.002;37.208;2024-03-02T16:19:11;16.87;;;8.78;;
75548;SDS011;64133;56.002;37.208;2024-03-02T16:24:16;18.10;;;8.25;;
75548;SDS011;64133;56.002;37.208;2024-03-02T16:29:21;20.43;;;9.58;;
75548;SDS011;64133;56.002;37.208;2024-03-02T16:34:26;15.35;;;8.70;;
75548;SDS011;64133;56.002;37.208;2024-03-02T16:39:31;16.45;;;9.90;;
75548;SDS011;64133;56.002;37.208;2024-03-02T16:44:36;15.85;;;8.90;;
75548;SDS011;64133;56.002;37.208;2024-03-02T16:49:43;16.27;;;9.33;;
75548;SDS011;64133;56.002;37.208;2024-03-02T16:54:49;11.83;;;8.63;;
75548;SDS011;64133;56.002;37.208;2024-03-02T16:59:54;16.48;;;10.28;;
75548;SDS011;64133;56.002;37.208;2024-03-02T17:04:59;20.10;;;10.23;;
75548;SDS011;64133;56.002;37.208;2024-03-02T17:10:05;19.52;;;7.67;;
75548;SDS011;64133;56.002;37.208;2024-03-02T17:15:10;21.55;;;10.32;;
75548;SDS011;64133;56.002;37.208;2024-03-02T17:20:15;18.95;;;9.50;;
75548;SDS011;64133;56.002;37.208;2024-03-02T17:25:21;16.60;;;8.45;;
75548;SDS011;64133;56.002;37.208;2024-03-02T17:30:26;15.20;;;8.68;;
75548;SDS011;64133;56.002;37.208;2024-03-02T17:35:31;16.40;;;9.53;;
75548;SDS011;64133;56.002;37.208;2024-03-02T17:40:39;16.77;;;8.70;;
75548;SDS011;64133;56.002;37.208;2024-03-02T17:45:45;25.40;;;10.32;;
75548;SDS011;64133;56.002;37.208;2024-03-02T17:50:52;20.77;;;9.75;;
75548;SDS011;64133;56.002;37.208;2024-03-02T17:55:57;16.57;;;8.48;;
75548;SDS011;64133;56.002;37.208;2024-03-02T18:01:02;22.77;;;11.65;;
75548;SDS011;64133;56.002;37.208;2024-03-02T18:06:08;18.90;;;8.98;;
75548;SDS011;64133;56.002;37.208;2024-03-02T18:11:16;20.70;;;10.95;;
75548;SDS011;64133;56.002;37.208;2024-03-02T18:16:21;15.85;;;9.45;;
75548;SDS011;64133;56.002;37.208;2024-03-02T18:21:26;15.20;;;9.43;;
75548;SDS011;64133;56.002;37.208;2024-03-02T18:26:31;17.40;;;9.70;;
75548;SDS011;64133;56.002;37.208;2024-03-02T18:31:36;25.80;;;11.28;;
75548;SDS011;64133;56.002;37.208;2024-03-02T18:36:42;18.05;;;10.40;;
75548;SDS011;64133;56.002;37.208;2024-03-02T18:41:47;17.77;;;9.98;;
75548;SDS011;64133;56.002;37.208;2024-03-02T18:46:52;13.83;;;8.03;;
75548;SDS011;64133;56.002;37.208;2024-03-02T18:52:06;14.18;;;7.70;;
75548;SDS011;64133;56.002;37.208;2024-03-02T18:57:11;18.27;;;8.95;;
75548;SDS011;64133;56.002;37.208;2024-03-02T19:02:16;19.23;;;10.98;;
75548;SDS011;64133;56.002;37.208;2024-03-02T19:07:21;19.15;;;10.55;;
75548;SDS011;64133;56.002;37.208;2024-03-02T19:12:26;16.75;;;9.78;;
75548;SDS011;64133;56.002;37.208;2024-03-02T19:17:31;15.15;;;8.35;;
75548;SDS011;64133;56.002;37.208;2024-03-02T19:22:36;22.37;;;10.98;;
75548;SDS011;64133;56.002;37.208;2024-03-02T19:27:41;16.77;;;8.13;;
75548;SDS011;64133;56.002;37.208;2024-03-02T19:32:47;22.05;;;9.23;;
75548;SDS011;64133;56.002;37.208;2024-03-02T19:37:52;12.80;;;7.67;;
75548;SDS011;64133;56.002;37.208;2024-03-02T19:42:57;12.68;;;8.68;;
75548;SDS011;64133;56.002;37.208;2024-03-02T19:48:02;15.30;;;8.63;;
75548;SDS011;64133;56.002;37.208;2024-03-02T19:53:14;15.00;;;8.30;;
75548;SDS011;64133;56.002;37.208;2024-03-02T19:58:19;15.23;;;7.80;;
75548;SDS011;64133;56.002;37.208;2024-03-02T20:03:24;16.42;;;7.12;;
75548;SDS011;64133;56.002;37.208;2024-03-02T20:08:29;12.78;;;7.87;;
75548;SDS011;64133;56.002;37.208;2024-03-02T20:13:34;13.15;;;7.97;;
75548;SDS011;64133;56.002;37.208;2024-03-02T20:18:39;18.90;;;6.90;;
75548;SDS011;64133;56.002;37.208;2024-03-02T20:23:45;11.85;;;6.67;;
75548;SDS011;64133;56.002;37.208;2024-03-02T20:28:50;14.05;;;7.12;;
75548;SDS011;64133;56.002;37.208;2024-03-02T20:33:55;12.03;;;6.78;;
75548;SDS011;64133;56.002;37.208;2024-03-02T20:39:00;10.72;;;7.53;;
75548;SDS011;64133;56.002;37.208;2024-03-02T20:44:05;14.50;;;8.48;;
75548;SDS011;64133;56.002;37.208;2024-03-02T20:49:10;13.55;;;6.67;;
75548;SDS011;64133;56.002;37.208;2024-03-02T20:54:15;13.48;;;6.17;;
75548;SDS011;64133;56.002;37.208;2024-03-02T20:59:21;9.85;;;5.62;;
75548;SDS011;64133;56.002;37.208;2024-03-02T21:04:26;14.50;;;7.08;;
75548;SDS011;64133;56.002;37.208;2024-03-02T21:09:31;9.68;;;6.62;;
75548;SDS011;64133;56.002;37.208;2024-03-02T21:14:36;8.43;;;5.05;;
75548;SDS011;64133;56.002;37.208;2024-03-02T21:19:41;12.63;;;8.10;;
75548;SDS011;64133;56.002;37.208;2024-03-02T21:24:46;10.40;;;5.85;;
75548;SDS011;64133;56.002;37.208;2024-03-02T21:29:52;10.72;;;6.08;;
75548;SDS011;64133;56.002;37.208;2024-03-02T21:34:57;12.23;;;6.62;;
75548;SDS011;64133;56.002;37.208;2024-03-02T21:40:02;14.68;;;8.13;;
75548;SDS011;64133;56.002;37.208;2024-03-02T21:45:09;13.60;;;7.55;;
75548;SDS011;64133;56.002;37.208;2024-03-02T21:50:15;20.72;;;8.60;;
75548;SDS011;64133;56.002;37.208;2024-03-02T21:55:20;14.33;;;8.88;;
75548;SDS011;64133;56.002;37.208;2024-03-02T22:00:26;12.40;;;7.58;;
75548;SDS011;64133;56.002;37.208;2024-03-02T22:05:31;16.82;;;6.65;;
75548;SDS011;64133;56.002;37.208;2024-03-02T22:10:36;9.98;;;7.47;;
75548;SDS011;64133;56.002;37.208;2024-03-02T22:15:41;12.37;;;5.58;;
75548;SDS011;64133;56.002;37.208;2024-03-02T22:20:46;8.23;;;5.30;;
75548;SDS011;64133;56.002;37.208;2024-03-02T22:25:51;9.20;;;6.20;;
75548;SDS011;64133;56.002;37.208;2024-03-02T22:30:56;19.87;;;7.40;;
75548;SDS011;64133;56.002;37.208;2024-03-02T22:36:01;13.28;;;7.35;;
75548;SDS011;64133;56.002;37.208;2024-03-02T22:41:07;9.83;;;5.05;;
75548;SDS011;64133;56.002;37.208;2024-03-02T22:46:14;20.77;;;5.65;;
75548;SDS011;64133;56.002;37.208;2024-03-02T22:51:22;16.35;;;7.22;;
75548;SDS011;64133;56.002;37.208;2024-03-02T22:56:27;8.05;;;4.45;;
75548;SDS011;64133;56.002;37.208;2024-03-02T23:01:32;11.73;;;5.17;;
75548;SDS011;64133;56.002;37.208;2024-03-02T23:06:37;12.33;;;6.25;;
75548;SDS011;64133;56.002;37.208;2024-03-02T23:11:42;11.12;;;6.05;;
75548;SDS011;64133;56.002;37.208;2024-03-02T23:16:47;16.50;;;5.17;;
75548;SDS011;64133;56.002;37.208;2024-03-02T23:21:52;13.43;;;6.03;;
75548;SDS011;64133;56.002;37.208;2024-03-02T23:26:57;10.20;;;5.65;;
75548;SDS011;64133;56.002;37.208;2024-03-02T23:32:02;14.00;;;4.70;;
75548;SDS011;64133;56.002;37.208;2024-03-02T23:37:08;4.80;;;3.58;;
75548;SDS011;64133;56.002;37.208;2024-03-02T23:42:13;8.70;;;5.12;;
75548;SDS011;64133;56.002;37.208;2024-03-02T23:47:18;7.45;;;3.47;;
75548;SDS011;64133;56.002;37.208;2024-03-02T23:52:23;7.97;;;5.25;;
75548;SDS011;64133;56.002;37.208;2024-03-02T23:57:28;8.43;;;5.10;;
